Time;durP1;ratioP1;P1;durP2;ratioP2;P2;SDS_P1;SDS_P2;PMS_P1;PMS_P2;Temp;Humidity;BMP_temperature;BMP_pressure;BME280_temperature;BME280_humidity;BME280_pressure;Samples;Min_cycle;Max_cycle;Signal;HPM_P1;HPM_P2
2021/08/08 00:01:31;;;;;;;2.78;2.58;;;18.70;99.90;;;;;;5050932;28;20045;-73
2021/08/08 00:03:58;;;;;;;2.28;2.08;;;18.70;99.90;;;;;;5052122;28;20044;-73
2021/08/08 00:06:26;;;;;;;3.40;1.90;;;18.60;99.90;;;;;;5051659;28;20049;-72
2021/08/08 00:08:52;;;;;;;1.95;1.73;;;18.60;99.90;;;;;;5039925;28;20571;-73
2021/08/08 00:11:19;;;;;;;4.03;2.38;;;18.60;99.90;;;;;;5051925;28;20547;-74
2021/08/08 00:13:46;;;;;;;4.28;2.67;;;18.50;99.90;;;;;;5050258;28;20099;-73
2021/08/08 00:16:12;;;;;;;4.00;2.15;;;18.50;99.90;;;;;;5052263;28;20052;-75
2021/08/08 00:18:39;;;;;;;2.90;2.20;;;18.50;99.90;;;;;;5040446;28;20098;-74
2021/08/08 00:21:05;;;;;;;2.75;1.85;;;18.60;99.90;;;;;;5052204;28;20052;-74
2021/08/08 00:23:33;;;;;;;2.10;2.00;;;18.60;99.90;;;;;;5033082;28;20115;-74
2021/08/08 00:26:00;;;;;;;2.35;2.08;;;18.40;99.90;;;;;;5033765;28;20391;-72
2021/08/08 00:28:27;;;;;;;2.38;2.20;;;18.40;99.90;;;;;;5043204;28;20086;-72
2021/08/08 00:30:53;;;;;;;2.03;1.92;;;18.50;99.90;;;;;;5050690;28;20049;-73
2021/08/08 00:33:20;;;;;;;2.40;2.20;;;18.50;99.90;;;;;;5037598;28;20049;-73
2021/08/08 00:35:46;;;;;;;2.40;2.20;;;18.40;99.90;;;;;;5052378;28;20045;-72
2021/08/08 00:38:13;;;;;;;2.35;2.17;;;18.40;99.90;;;;;;5052235;28;20041;-73
2021/08/08 00:40:43;;;;;;;2.28;2.08;;;18.30;99.90;;;;;;5051690;28;20510;-74
2021/08/08 00:43:10;;;;;;;2.13;1.92;;;18.20;99.90;;;;;;5046960;28;20797;-74
2021/08/08 00:45:37;;;;;;;4.65;2.55;;;18.20;99.90;;;;;;5051939;28;20059;-74
2021/08/08 00:48:05;;;;;;;2.28;2.08;;;18.20;99.90;;;;;;5052646;28;20037;-74
2021/08/08 00:50:32;;;;;;;2.85;2.25;;;18.10;99.90;;;;;;5054391;28;20049;-74
2021/08/08 00:52:58;;;;;;;4.22;2.10;;;18.00;99.90;;;;;;5047183;28;20087;-72
2021/08/08 00:55:25;;;;;;;2.40;2.20;;;18.00;99.90;;;;;;5035911;28;20107;-74
2021/08/08 00:57:53;;;;;;;2.30;2.10;;;18.00;99.90;;;;;;5047179;28;20555;-72
2021/08/08 01:00:20;;;;;;;1.88;1.77;;;17.90;99.90;;;;;;5054576;28;20106;-74
2021/08/08 01:02:50;;;;;;;1.80;1.70;;;17.80;99.90;;;;;;5045285;28;20566;-73
2021/08/08 01:05:22;;;;;;;2.88;2.63;;;17.80;99.90;;;;;;5055830;28;20390;-73
2021/08/08 01:07:57;;;;;;;3.33;2.10;;;17.80;99.90;;;;;;5055590;28;20041;-73
2021/08/08 01:10:25;;;;;;;3.35;2.67;;;17.80;99.90;;;;;;5054784;28;20048;-74
2021/08/08 01:12:55;;;;;;;1.92;1.83;;;17.80;99.90;;;;;;5055237;28;20041;-74
2021/08/08 01:15:22;;;;;;;4.05;2.30;;;17.80;99.90;;;;;;5045987;28;20045;-74
2021/08/08 01:17:50;;;;;;;2.25;1.98;;;17.80;99.90;;;;;;5035359;28;20049;-74
2021/08/08 01:20:17;;;;;;;2.95;2.20;;;17.70;99.90;;;;;;5036588;28;20097;-75
2021/08/08 01:22:49;;;;;;;2.95;1.80;;;17.70;99.90;;;;;;5055126;28;20091;-74
2021/08/08 01:25:17;;;;;;;3.30;2.28;;;17.60;99.90;;;;;;5045567;28;20107;-74
2021/08/08 01:27:43;;;;;;;3.33;2.08;;;17.50;99.90;;;;;;5044999;28;20049;-74
2021/08/08 01:30:11;;;;;;;2.50;2.05;;;17.50;99.90;;;;;;5042753;28;20567;-74
2021/08/08 01:32:38;;;;;;;2.38;2.17;;;17.50;99.90;;;;;;5038725;28;20076;-75
2021/08/08 01:35:05;;;;;;;2.45;2.25;;;17.40;99.90;;;;;;5053548;28;20045;-74
2021/08/08 01:37:32;;;;;;;3.13;2.60;;;17.30;99.90;;;;;;5037597;28;20045;-73
2021/08/08 01:40:07;;;;;;;5.15;2.30;;;17.30;99.90;;;;;;5036228;28;20042;-74
2021/08/08 01:42:36;;;;;;;2.15;2.05;;;17.20;99.90;;;;;;5052387;28;20095;-73
2021/08/08 01:45:03;;;;;;;2.58;1.92;;;17.20;99.90;;;;;;5054772;28;20049;-73
2021/08/08 01:47:33;;;;;;;2.65;2.00;;;17.20;99.90;;;;;;5052948;28;20547;-72
2021/08/08 01:50:00;;;;;;;1.85;1.75;;;17.10;99.90;;;;;;5039072;28;20041;-72
2021/08/08 01:52:26;;;;;;;4.93;2.53;;;17.10;99.90;;;;;;5044788;28;20505;-73
2021/08/08 01:54:55;;;;;;;2.38;2.13;;;17.10;99.90;;;;;;5034080;28;20057;-73
2021/08/08 01:57:22;;;;;;;3.03;2.72;;;17.10;99.90;;;;;;5044280;28;20041;-73
2021/08/08 01:59:50;;;;;;;3.08;2.65;;;17.10;99.90;;;;;;5053749;28;20041;-72
2021/08/08 02:02:18;;;;;;;3.60;2.15;;;17.00;99.90;;;;;;5048861;28;20045;-73
2021/08/08 02:04:46;;;;;;;2.17;1.92;;;17.00;99.90;;;;;;5054150;28;20497;-74
2021/08/08 02:07:15;;;;;;;3.35;2.00;;;16.90;99.90;;;;;;5054191;28;20479;-74
2021/08/08 02:09:42;;;;;;;3.35;3.05;;;16.90;99.90;;;;;;5039599;28;20049;-74
2021/08/08 02:12:09;;;;;;;2.40;2.20;;;16.90;99.90;;;;;;5034828;28;20107;-73
2021/08/08 02:14:36;;;;;;;2.15;2.05;;;17.00;99.90;;;;;;5048813;28;20463;-74
2021/08/08 02:17:06;;;;;;;5.30;1.90;;;16.90;99.90;;;;;;5054055;28;20563;-72
2021/08/08 02:19:33;;;;;;;2.70;1.98;;;16.90;99.90;;;;;;5054080;28;20045;-73
2021/08/08 02:22:02;;;;;;;2.67;2.10;;;16.90;99.90;;;;;;5054122;28;20053;-74
2021/08/08 02:24:29;;;;;;;2.30;2.03;;;16.90;99.90;;;;;;5054283;28;20119;-74
2021/08/08 02:26:56;;;;;;;5.68;2.42;;;16.90;99.90;;;;;;5040459;28;20492;-73
2021/08/08 02:29:22;;;;;;;2.25;2.00;;;16.90;99.90;;;;;;5048017;28;20505;-73
2021/08/08 02:31:49;;;;;;;4.38;2.53;;;16.80;99.90;;;;;;5041317;28;20046;-72
2021/08/08 02:34:17;;;;;;;2.50;2.30;;;16.80;99.90;;;;;;5044829;28;20091;-73
2021/08/08 02:36:44;;;;;;;2.75;2.22;;;16.80;99.90;;;;;;5052594;28;20048;-73
2021/08/08 02:39:11;;;;;;;5.47;3.55;;;16.80;99.90;;;;;;5053133;28;20052;-73
2021/08/08 02:41:37;;;;;;;3.13;2.63;;;16.70;99.90;;;;;;5036885;28;20482;-73
2021/08/08 02:44:05;;;;;;;2.88;2.20;;;16.80;99.90;;;;;;5033885;28;20061;-74
2021/08/08 02:46:32;;;;;;;2.40;2.20;;;16.80;99.90;;;;;;5034415;28;20064;-74
2021/08/08 02:48:59;;;;;;;2.67;2.42;;;16.80;99.90;;;;;;5033513;28;20489;-73
2021/08/08 02:51:27;;;;;;;3.08;2.83;;;16.90;99.90;;;;;;5039439;28;20395;-73
2021/08/08 02:53:53;;;;;;;3.70;2.17;;;16.90;99.90;;;;;;5033822;28;20050;-73
2021/08/08 02:56:20;;;;;;;2.83;2.20;;;16.90;99.90;;;;;;5036216;28;20501;-73
2021/08/08 02:58:47;;;;;;;2.83;2.13;;;16.80;99.90;;;;;;5052160;28;20041;-74
2021/08/08 03:01:13;;;;;;;2.25;2.00;;;16.80;99.90;;;;;;5050834;28;20505;-74
2021/08/08 03:03:40;;;;;;;3.78;3.03;;;16.80;99.90;;;;;;5050155;28;20046;-75
2021/08/08 03:06:11;;;;;;;3.17;2.35;;;16.90;99.90;;;;;;5050160;28;20489;-74
2021/08/08 03:08:40;;;;;;;2.40;2.20;;;16.80;99.90;;;;;;5048398;28;20041;-74
2021/08/08 03:11:07;;;;;;;3.45;2.55;;;16.80;99.90;;;;;;5052439;28;20037;-74
2021/08/08 03:13:33;;;;;;;2.78;2.35;;;16.80;99.90;;;;;;5051330;28;20099;-74
2021/08/08 03:16:00;;;;;;;3.60;2.60;;;16.80;99.90;;;;;;5053081;28;20045;-74
2021/08/08 03:18:26;;;;;;;2.60;2.20;;;16.90;99.90;;;;;;5052267;28;20045;-74
2021/08/08 03:20:53;;;;;;;3.05;2.33;;;16.90;99.90;;;;;;5052457;28;20053;-74
2021/08/08 03:23:20;;;;;;;2.42;2.30;;;16.90;99.90;;;;;;5053142;28;20098;-72
2021/08/08 03:25:48;;;;;;;2.30;2.10;;;16.90;99.90;;;;;;5052545;28;20041;-74
2021/08/08 03:28:14;;;;;;;2.50;2.30;;;16.90;99.90;;;;;;5037954;28;20049;-75
2021/08/08 03:30:41;;;;;;;3.85;1.90;;;17.00;99.90;;;;;;5049736;28;20045;-75
2021/08/08 03:33:08;;;;;;;2.22;2.03;;;16.90;99.90;;;;;;5049707;28;20045;-75
2021/08/08 03:35:34;;;;;;;2.70;2.30;;;17.00;99.90;;;;;;5050697;28;20053;-73
2021/08/08 03:38:01;;;;;;;2.88;2.13;;;17.00;99.90;;;;;;5034407;28;20050;-73
2021/08/08 03:40:28;;;;;;;2.75;2.40;;;17.00;99.90;;;;;;5039997;28;20418;-75
2021/08/08 03:42:56;;;;;;;3.60;2.05;;;16.90;99.90;;;;;;5051822;28;20509;-74
2021/08/08 03:45:22;;;;;;;3.35;2.72;;;17.00;99.90;;;;;;5052775;28;20053;-74
2021/08/08 03:47:49;;;;;;;2.20;2.00;;;17.00;99.90;;;;;;5049847;28;20493;-73
2021/08/08 03:50:16;;;;;;;4.82;2.20;;;17.00;99.90;;;;;;5032491;28;20452;-72
2021/08/08 03:52:42;;;;;;;2.53;2.13;;;17.10;99.90;;;;;;5032691;28;20071;-73
2021/08/08 03:55:10;;;;;;;6.22;2.13;;;17.10;99.90;;;;;;5032928;28;20045;-73
2021/08/08 03:57:37;;;;;;;4.18;2.40;;;17.10;99.90;;;;;;5041790;28;20486;-73
2021/08/08 04:00:06;;;;;;;3.90;2.53;;;17.20;99.90;;;;;;5044825;28;20067;-73
2021/08/08 04:02:33;;;;;;;1.95;1.85;;;17.20;99.90;;;;;;5051825;28;20040;-73
2021/08/08 04:04:59;;;;;;;3.50;2.05;;;17.20;99.90;;;;;;5043127;28;20053;-73
2021/08/08 04:07:26;;;;;;;2.67;2.08;;;17.20;99.90;;;;;;5034154;28;20100;-73
2021/08/08 04:09:52;;;;;;;3.47;1.83;;;17.30;99.90;;;;;;5050878;28;20045;-73
2021/08/08 04:12:19;;;;;;;2.55;1.83;;;17.30;99.90;;;;;;5032899;28;20096;-73
2021/08/08 04:14:45;;;;;;;2.10;1.90;;;17.30;99.90;;;;;;5040736;28;20049;-73
2021/08/08 04:17:14;;;;;;;2.97;1.75;;;17.30;99.90;;;;;;5052206;28;20485;-73
2021/08/08 04:19:41;;;;;;;3.67;2.15;;;17.30;99.90;;;;;;5051279;28;20514;-74
2021/08/08 04:22:07;;;;;;;3.30;1.92;;;17.30;99.90;;;;;;5051407;28;20057;-74
2021/08/08 04:24:34;;;;;;;2.88;1.92;;;17.20;99.90;;;;;;5035851;28;20046;-74
2021/08/08 04:27:01;;;;;;;1.95;1.80;;;17.20;99.90;;;;;;5044553;28;20068;-73
2021/08/08 04:29:27;;;;;;;2.35;1.85;;;17.30;99.90;;;;;;5050316;28;20485;-73
2021/08/08 04:31:55;;;;;;;2.35;1.90;;;17.30;99.90;;;;;;5036406;28;20049;-73
2021/08/08 04:34:23;;;;;;;2.33;2.10;;;17.30;99.90;;;;;;5037485;28;20042;-73
2021/08/08 04:36:49;;;;;;;2.42;1.73;;;17.40;99.90;;;;;;5036467;28;20096;-72
2021/08/08 04:39:16;;;;;;;3.53;2.20;;;17.40;99.90;;;;;;5042396;28;20476;-73
2021/08/08 04:41:43;;;;;;;1.88;1.77;;;17.50;99.90;;;;;;5047761;28;20098;-72
2021/08/08 04:44:09;;;;;;;2.03;1.83;;;17.50;99.90;;;;;;5055609;28;20090;-72
2021/08/08 04:46:36;;;;;;;3.22;2.45;;;17.40;99.90;;;;;;5055598;28;20061;-73
2021/08/08 04:49:02;;;;;;;4.38;2.17;;;17.40;99.90;;;;;;5054812;28;20563;-72
2021/08/08 04:51:30;;;;;;;1.92;1.65;;;17.50;99.90;;;;;;5054606;28;20045;-73
2021/08/08 04:53:57;;;;;;;1.95;1.70;;;17.50;99.90;;;;;;5036453;28;20071;-73
2021/08/08 04:56:23;;;;;;;2.60;1.70;;;17.40;99.90;;;;;;5043739;28;20041;-72
2021/08/08 04:58:50;;;;;;;3.00;1.77;;;17.50;99.90;;;;;;5047376;28;20091;-75
2021/08/08 05:01:16;;;;;;;3.40;1.88;;;17.50;99.90;;;;;;5046549;28;20095;-75
2021/08/08 05:03:43;;;;;;;3.25;1.70;;;17.50;99.90;;;;;;5055513;28;20049;-75
2021/08/08 05:06:10;;;;;;;2.40;2.20;;;17.50;99.90;;;;;;5056312;28;20397;-75
2021/08/08 05:08:38;;;;;;;2.00;1.80;;;17.40;99.90;;;;;;5054866;28;20095;-72
2021/08/08 05:11:04;;;;;;;2.53;2.17;;;17.40;99.90;;;;;;5055556;28;20049;-74
2021/08/08 05:13:31;;;;;;;3.42;2.17;;;17.40;99.90;;;;;;5055967;28;20045;-74
2021/08/08 05:15:58;;;;;;;2.42;2.22;;;17.40;99.90;;;;;;5055556;28;20067;-73
2021/08/08 05:18:25;;;;;;;3.10;1.70;;;17.50;99.90;;;;;;5054782;28;20056;-74
2021/08/08 05:20:52;;;;;;;2.55;1.80;;;17.40;99.90;;;;;;5055557;28;20045;-73
2021/08/08 05:23:18;;;;;;;2.92;1.73;;;17.40;99.90;;;;;;5055145;28;20095;-73
2021/08/08 05:25:46;;;;;;;1.98;1.40;;;17.40;99.90;;;;;;5055036;28;20091;-74
2021/08/08 05:28:13;;;;;;;2.38;2.08;;;17.30;99.90;;;;;;5047124;28;20071;-75
2021/08/08 05:30:39;;;;;;;1.45;1.35;;;17.40;99.90;;;;;;5049158;28;20063;-74
2021/08/08 05:33:06;;;;;;;1.60;1.50;;;17.40;99.90;;;;;;5049253;28;20107;-74
2021/08/08 05:35:33;;;;;;;1.60;1.50;;;17.30;99.90;;;;;;5035412;28;20448;-74
2021/08/08 05:37:59;;;;;;;3.85;1.70;;;17.30;99.90;;;;;;5038239;28;20098;-72
2021/08/08 05:40:26;;;;;;;2.90;2.45;;;17.30;99.90;;;;;;5049012;28;20092;-75
2021/08/08 05:42:54;;;;;;;2.72;2.53;;;17.30;99.90;;;;;;5034894;28;20180;-75
2021/08/08 05:45:22;;;;;;;2.35;1.98;;;17.40;99.90;;;;;;5047949;28;20497;-73
2021/08/08 05:47:48;;;;;;;2.58;2.17;;;17.40;99.90;;;;;;5049135;28;20037;-75
2021/08/08 05:50:15;;;;;;;1.90;1.58;;;17.40;99.90;;;;;;5049113;28;20554;-75
2021/08/08 05:52:48;;;;;;;2.80;1.65;;;17.30;99.90;;;;;;5054957;28;20048;-74
2021/08/08 05:55:14;;;;;;;4.43;1.88;;;17.30;99.90;;;;;;5054371;28;20053;-75
2021/08/08 05:57:41;;;;;;;3.30;2.47;;;17.40;99.90;;;;;;5052659;28;20095;-75
2021/08/08 06:00:10;;;;;;;2.50;1.67;;;17.60;99.90;;;;;;5052045;28;20045;-73
2021/08/08 06:02:36;;;;;;;2.80;2.20;;;17.70;99.90;;;;;;5050842;28;20049;-73
2021/08/08 06:05:03;;;;;;;1.50;1.40;;;18.00;99.90;;;;;;5054388;28;20095;-74
2021/08/08 06:07:30;;;;;;;2.38;1.40;;;18.10;99.90;;;;;;5054543;28;20075;-73
2021/08/08 06:09:56;;;;;;;2.97;2.28;;;18.30;99.90;;;;;;5045107;28;20428;-74
2021/08/08 06:12:23;;;;;;;3.22;1.55;;;18.40;99.90;;;;;;5053569;28;20045;-73
2021/08/08 06:14:50;;;;;;;2.72;1.50;;;18.60;99.90;;;;;;5053307;28;20044;-74
2021/08/08 06:17:18;;;;;;;3.40;1.75;;;18.60;99.90;;;;;;5035612;28;20052;-74
2021/08/08 06:19:44;;;;;;;2.20;2.00;;;18.80;99.90;;;;;;5039743;28;20497;-74
2021/08/08 06:22:13;;;;;;;2.03;1.40;;;18.90;99.90;;;;;;5052899;28;20417;-72
2021/08/08 06:24:40;;;;;;;5.93;4.20;;;19.10;99.90;;;;;;5033592;28;20050;-74
2021/08/08 06:27:08;;;;;;;1.77;1.67;;;19.30;99.90;;;;;;5050437;28;20049;-75
2021/08/08 06:29:36;;;;;;;1.30;1.20;;;19.50;99.90;;;;;;5044201;28;20549;-74
2021/08/08 06:32:03;;;;;;;3.35;2.03;;;19.50;99.90;;;;;;5052871;28;20084;-74
2021/08/08 06:34:31;;;;;;;2.67;2.35;;;19.90;99.90;;;;;;5047340;28;20096;-75
2021/08/08 06:36:58;;;;;;;5.70;1.88;;;19.90;99.90;;;;;;5052377;28;20044;-73
2021/08/08 06:39:24;;;;;;;4.35;1.48;;;19.90;99.90;;;;;;5052401;28;20045;-74
2021/08/08 06:41:51;;;;;;;2.30;1.38;;;19.70;99.90;;;;;;5052387;28;20045;-74
2021/08/08 06:44:17;;;;;;;1.38;1.10;;;19.80;99.90;;;;;;5052960;28;20108;-74
2021/08/08 06:46:44;;;;;;;2.25;1.52;;;20.00;99.90;;;;;;5037954;28;20049;-74
2021/08/08 06:49:11;;;;;;;2.70;0.93;;;20.00;99.90;;;;;;5038874;28;20520;-75
2021/08/08 06:51:38;;;;;;;1.45;1.35;;;20.40;99.90;;;;;;5040388;28;20049;-74
2021/08/08 06:54:05;;;;;;;3.10;1.73;;;20.30;99.90;;;;;;5032656;28;20482;-74
2021/08/08 06:56:32;;;;;;;2.78;1.90;;;20.60;99.90;;;;;;5045463;28;20057;-73
2021/08/08 06:58:59;;;;;;;1.40;1.30;;;20.60;99.90;;;;;;5036842;28;20045;-74
2021/08/08 07:01:26;;;;;;;8.40;4.40;;;20.60;99.90;;;;;;5040272;28;20087;-74
2021/08/08 07:03:52;;;;;;;1.60;1.40;;;21.10;99.90;;;;;;5052670;28;20045;-75
2021/08/08 07:06:19;;;;;;;1.38;1.23;;;21.60;99.90;;;;;;5052709;28;20107;-74
2021/08/08 07:08:47;;;;;;;3.17;1.25;;;21.70;99.90;;;;;;5044609;28;20042;-74
2021/08/08 07:11:13;;;;;;;2.47;1.17;;;21.80;99.90;;;;;;5049562;28;20053;-74
2021/08/08 07:13:40;;;;;;;2.00;0.85;;;21.90;99.90;;;;;;5039560;28;20045;-74
2021/08/08 07:16:07;;;;;;;1.75;1.20;;;22.00;99.90;;;;;;5032548;28;20103;-74
2021/08/08 07:18:34;;;;;;;1.05;1.00;;;21.70;99.90;;;;;;5031821;28;20100;-74
2021/08/08 07:21:01;;;;;;;2.83;1.00;;;21.20;99.90;;;;;;5032425;28;20417;-73
2021/08/08 07:23:28;;;;;;;1.80;0.95;;;21.30;99.90;;;;;;5032734;28;20123;-73
2021/08/08 07:25:56;;;;;;;1.20;1.10;;;21.70;99.90;;;;;;5051884;28;20045;-74
2021/08/08 07:28:22;;;;;;;0.80;0.80;;;22.40;99.90;;;;;;5051018;28;20045;-75
2021/08/08 07:30:49;;;;;;;6.55;3.90;;;22.10;99.90;;;;;;5039712;28;20054;-74
2021/08/08 07:33:16;;;;;;;2.28;1.70;;;22.60;99.90;;;;;;5032664;28;20556;-74
2021/08/08 07:35:44;;;;;;;4.72;1.00;;;22.90;99.90;;;;;;5039756;28;20037;-75
2021/08/08 07:38:10;;;;;;;1.08;0.80;;;22.70;99.90;;;;;;5051119;28;20053;-74
2021/08/08 07:40:37;;;;;;;0.73;0.73;;;23.10;99.90;;;;;;5050169;28;20551;-74
2021/08/08 07:43:05;;;;;;;0.90;0.80;;;23.60;99.90;;;;;;5032009;28;20079;-75
2021/08/08 07:45:32;;;;;;;1.35;1.00;;;23.40;99.90;;;;;;5038131;28;20068;-74
2021/08/08 07:47:58;;;;;;;1.75;0.93;;;23.40;99.90;;;;;;5051063;28;20053;-74
2021/08/08 07:50:25;;;;;;;1.77;0.80;;;23.40;99.90;;;;;;5051403;28;20048;-75
2021/08/08 07:52:52;;;;;;;1.17;0.95;;;23.30;99.90;;;;;;5051231;28;20048;-75
2021/08/08 07:55:18;;;;;;;1.75;1.05;;;23.50;99.90;;;;;;5051630;28;20075;-75
2021/08/08 07:57:45;;;;;;;0.93;0.75;;;23.70;99.90;;;;;;5032602;28;20046;-75
2021/08/08 08:00:13;;;;;;;2.05;1.70;;;24.40;99.60;;;;;;5048614;28;20079;-75
2021/08/08 08:02:40;;;;;;;0.60;0.60;;;24.90;99.90;;;;;;5051895;28;20091;-76
2021/08/08 08:05:07;;;;;;;1.92;1.02;;;24.40;96.30;;;;;;5033946;28;20041;-75
2021/08/08 08:07:34;;;;;;;1.45;0.88;;;23.80;97.30;;;;;;5031064;28;20065;-74
2021/08/08 08:10:00;;;;;;;0.60;0.60;;;24.20;96.10;;;;;;5037810;28;20037;-75
2021/08/08 08:12:27;;;;;;;0.70;0.70;;;24.10;95.90;;;;;;5051203;28;20532;-75
2021/08/08 08:14:54;;;;;;;1.58;0.90;;;23.60;97.70;;;;;;5050417;28;20045;-75
2021/08/08 08:17:22;;;;;;;1.00;0.98;;;23.30;97.90;;;;;;5050898;28;20040;-73
2021/08/08 08:19:48;;;;;;;1.30;0.80;;;23.00;98.70;;;;;;5050869;28;20547;-73
2021/08/08 08:22:16;;;;;;;1.38;0.80;;;23.30;98.50;;;;;;5031628;28;20486;-74
2021/08/08 08:24:42;;;;;;;1.40;1.30;;;23.80;97.70;;;;;;5031534;28;20418;-73
2021/08/08 08:27:09;;;;;;;1.67;1.17;;;24.40;97.20;;;;;;5038255;28;20053;-74
2021/08/08 08:29:36;;;;;;;1.23;0.82;;;25.10;97.30;;;;;;5049623;28;20053;-74
2021/08/08 08:32:04;;;;;;;1.73;0.85;;;26.00;92.80;;;;;;5051321;28;20044;-75
2021/08/08 08:34:32;;;;;;;0.63;0.63;;;25.80;92.00;;;;;;5051424;28;20045;-74
2021/08/08 08:36:58;;;;;;;0.65;0.65;;;26.60;91.20;;;;;;5050658;28;20049;-74
2021/08/08 08:39:25;;;;;;;12.68;5.82;;;27.10;86.50;;;;;;5050337;28;20049;-74
2021/08/08 08:41:57;;;;;;;0.68;0.68;;;26.70;84.70;;;;;;5050806;28;20103;-73
2021/08/08 08:44:23;;;;;;;0.60;0.60;;;25.90;86.70;;;;;;5047752;28;20118;-74
2021/08/08 08:46:55;;;;;;;0.80;0.68;;;24.40;88.20;;;;;;5051156;28;20041;-74
2021/08/08 08:49:26;;;;;;;1.13;1.00;;;23.90;91.30;;;;;;5049825;28;20048;-74
2021/08/08 08:51:55;;;;;;;1.30;0.80;;;23.60;91.70;;;;;;5051186;28;20485;-74
2021/08/08 08:54:23;;;;;;;0.70;0.65;;;23.30;91.80;;;;;;5032738;28;20045;-74
2021/08/08 08:56:51;;;;;;;1.42;1.25;;;22.90;92.70;;;;;;5048222;28;20052;-74
2021/08/08 08:59:19;;;;;;;2.13;1.10;;;23.00;93.70;;;;;;5030710;28;20180;-73
2021/08/08 09:01:45;;;;;;;1.38;0.73;;;22.70;93.80;;;;;;5031278;28;20045;-73
2021/08/08 09:04:12;;;;;;;1.10;1.00;;;23.00;94.80;;;;;;5040577;28;20051;-75
2021/08/08 09:06:41;;;;;;;1.20;1.10;;;22.90;94.40;;;;;;5039045;28;20049;-74
2021/08/08 09:09:09;;;;;;;1.20;1.10;;;22.90;94.00;;;;;;5031281;28;20049;-74
2021/08/08 09:11:39;;;;;;;1.92;0.95;;;22.50;94.60;;;;;;5036454;28;20049;-73
2021/08/08 09:14:06;;;;;;;1.67;0.77;;;22.30;95.60;;;;;;5054313;28;20091;-75
2021/08/08 09:16:39;;;;;;;1.20;0.88;;;22.50;95.70;;;;;;5049577;28;20111;-73
2021/08/08 09:19:06;;;;;;;0.98;0.90;;;23.60;93.60;;;;;;5041886;28;20052;-72
2021/08/08 09:21:34;;;;;;;1.40;1.00;;;24.00;91.60;;;;;;5046583;28;20041;-75
2021/08/08 09:24:07;;;;;;;2.38;0.75;;;24.30;91.80;;;;;;5058416;28;20059;-74
2021/08/08 09:26:37;;;;;;;3.33;0.90;;;24.00;91.10;;;;;;5052578;28;20132;-74
2021/08/08 09:29:08;;;;;;;0.52;0.52;;;24.20;92.30;;;;;;5045513;28;20072;-75
2021/08/08 09:31:43;;;;;;;1.38;1.27;;;25.50;89.50;;;;;;5052001;28;20045;-75
2021/08/08 09:34:23;;;;;;;1.58;1.27;;;26.70;85.20;;;;;;5038552;28;20482;-73
2021/08/08 09:36:50;;;;;;;0.93;0.50;;;26.20;82.70;;;;;;5052912;28;20048;-72
2021/08/08 09:39:27;;;;;;;2.50;2.30;;;26.40;83.60;;;;;;5056249;28;20076;-73
2021/08/08 09:42:10;;;;;;;1.08;0.75;;;26.00;86.70;;;;;;5056753;28;20049;-72
2021/08/08 09:44:38;;;;;;;1.55;0.88;;;25.10;88.00;;;;;;5044209;28;20449;-75
2021/08/08 09:47:06;;;;;;;1.17;0.95;;;24.90;88.80;;;;;;5054625;28;20044;-75
2021/08/08 09:49:32;;;;;;;1.50;0.95;;;24.40;89.50;;;;;;5055460;28;20113;-75
2021/08/08 09:52:01;;;;;;;1.38;0.70;;;24.40;89.70;;;;;;5056495;28;20107;-77
2021/08/08 09:54:36;;;;;;;3.33;1.60;;;24.30;90.50;;;;;;5055592;28;20059;-77
2021/08/08 09:57:05;;;;;;;1.70;0.80;;;24.50;90.90;;;;;;5055959;28;20129;-76
2021/08/08 09:59:32;;;;;;;0.90;0.82;;;24.40;91.00;;;;;;5054439;28;20055;-76
2021/08/08 10:02:01;;;;;;;0.60;0.60;;;24.50;90.60;;;;;;5055296;28;20460;-76
2021/08/08 10:04:29;;;;;;;0.80;0.80;;;24.60;91.40;;;;;;5038964;28;20054;-76
2021/08/08 10:06:57;;;;;;;2.20;0.80;;;24.70;91.00;;;;;;5035346;28;20052;-76
2021/08/08 10:09:24;;;;;;;1.17;0.70;;;24.90;88.50;;;;;;5037734;28;20048;-76
2021/08/08 10:11:52;;;;;;;1.40;1.30;;;24.60;88.30;;;;;;5055903;28;20049;-76
2021/08/08 10:14:21;;;;;;;0.98;0.90;;;24.60;88.40;;;;;;5054515;28;20083;-76
2021/08/08 10:16:48;;;;;;;1.15;1.10;;;24.60;89.20;;;;;;5055381;28;20040;-76
2021/08/08 10:19:18;;;;;;;1.00;0.95;;;24.20;90.10;;;;;;5055699;28;20456;-76
2021/08/08 10:21:49;;;;;;;1.20;1.00;;;23.60;91.20;;;;;;5054300;28;20084;-77
2021/08/08 10:24:19;;;;;;;0.95;0.80;;;24.00;92.70;;;;;;5056211;28;20091;-76
2021/08/08 10:26:49;;;;;;;2.13;1.23;;;25.10;88.10;;;;;;5058236;28;20080;-77
2021/08/08 10:29:20;;;;;;;0.90;0.80;;;26.00;83.50;;;;;;5056609;28;20512;-77
2021/08/08 10:31:50;;;;;;;1.03;0.77;;;25.90;82.90;;;;;;5055596;28;20300;-76
2021/08/08 10:34:17;;;;;;;1.25;0.80;;;25.70;82.20;;;;;;5056237;28;20564;-77
2021/08/08 10:36:44;;;;;;;2.53;1.33;;;25.50;83.80;;;;;;5061338;28;20501;-77
2021/08/08 10:39:13;;;;;;;2.55;1.42;;;25.00;85.50;;;;;;5058417;28;20049;-76
2021/08/08 10:41:41;;;;;;;1.10;1.05;;;24.40;88.90;;;;;;5055283;28;20045;-76
2021/08/08 10:44:10;;;;;;;1.30;0.80;;;24.50;88.70;;;;;;5056328;28;20107;-77
2021/08/08 10:46:45;;;;;;;1.25;1.02;;;24.30;87.60;;;;;;5059215;28;20056;-77
2021/08/08 10:49:13;;;;;;;1.10;1.02;;;24.30;84.60;;;;;;5055654;28;20089;-78
2021/08/08 10:51:40;;;;;;;0.80;0.80;;;24.70;84.00;;;;;;5064192;28;20049;-78
2021/08/08 10:54:08;;;;;;;0.93;0.85;;;24.10;83.70;;;;;;5057341;28;20094;-77
2021/08/08 10:56:43;;;;;;;0.65;0.65;;;24.60;82.40;;;;;;5057365;28;20059;-79
2021/08/08 10:59:13;;;;;;;2.25;0.80;;;24.40;80.80;;;;;;5055169;28;20485;-77
2021/08/08 11:01:40;;;;;;;1.20;1.08;;;24.40;82.50;;;;;;5055482;28;20052;-79
2021/08/08 11:04:07;;;;;;;0.93;0.80;;;25.30;80.30;;;;;;5054045;28;20045;-77
2021/08/08 11:06:36;;;;;;;0.70;0.70;;;25.60;78.10;;;;;;5055611;28;20417;-77
2021/08/08 11:09:04;;;;;;;0.65;0.65;;;24.60;79.20;;;;;;5054745;28;20136;-76
2021/08/08 11:11:32;;;;;;;2.50;1.70;;;24.20;81.50;;;;;;5055901;28;20044;-77
2021/08/08 11:14:09;;;;;;;4.15;3.47;;;24.60;78.20;;;;;;5055269;28;20041;-77
2021/08/08 11:16:36;;;;;;;0.70;0.70;;;25.30;77.10;;;;;;5055220;28;20107;-78
2021/08/08 11:19:02;;;;;;;0.82;0.80;;;25.00;76.70;;;;;;5054754;28;20041;-78
2021/08/08 11:21:29;;;;;;;0.73;0.73;;;24.60;78.70;;;;;;5055761;28;20510;-77
2021/08/08 11:24:00;;;;;;;0.90;0.90;;;24.50;79.80;;;;;;5060146;28;20072;-77
2021/08/08 11:26:27;;;;;;;0.80;0.80;;;24.20;81.80;;;;;;5054842;28;20045;-77
2021/08/08 11:28:55;;;;;;;0.88;0.88;;;24.10;83.00;;;;;;5054628;28;20490;-76
2021/08/08 11:31:22;;;;;;;1.13;1.10;;;23.90;83.70;;;;;;5045409;28;20465;-77
2021/08/08 11:33:55;;;;;;;2.55;0.77;;;24.90;82.90;;;;;;5034863;28;20045;-77
2021/08/08 11:36:30;;;;;;;0.77;0.77;;;26.00;77.90;;;;;;5036282;28;20057;-78
2021/08/08 11:39:01;;;;;;;0.70;0.70;;;27.00;75.70;;;;;;5052483;28;20053;-77
2021/08/08 11:41:29;;;;;;;0.95;0.95;;;27.20;70.60;;;;;;5043981;28;20053;-78
2021/08/08 11:44:10;;;;;;;0.90;0.90;;;25.60;73.80;;;;;;5034660;28;20055;-77
2021/08/08 11:46:38;;;;;;;0.80;0.80;;;24.60;78.60;;;;;;5036444;28;20080;-77
2021/08/08 11:49:16;;;;;;;1.42;0.77;;;24.10;81.00;;;;;;5034791;28;20045;-77
2021/08/08 11:51:43;;;;;;;2.42;0.80;;;23.90;80.80;;;;;;5035384;28;20104;-76
2021/08/08 11:54:14;;;;;;;1.80;1.33;;;23.60;81.20;;;;;;5051361;28;20489;-77
2021/08/08 11:56:42;;;;;;;1.38;1.27;;;23.70;80.70;;;;;;5054230;28;20095;-78
2021/08/08 11:59:09;;;;;;;3.92;1.17;;;23.80;80.50;;;;;;5054366;28;20071;-76
2021/08/08 12:01:35;;;;;;;1.02;0.82;;;24.00;80.20;;;;;;5054513;28;20056;-77
2021/08/08 12:04:09;;;;;;;1.15;1.10;;;24.40;79.90;;;;;;5036737;28;20045;-77
2021/08/08 12:06:36;;;;;;;1.60;0.90;;;24.50;79.00;;;;;;5034148;28;20161;-77
2021/08/08 12:09:03;;;;;;;1.45;0.85;;;24.60;75.60;;;;;;5043279;28;20055;-77
2021/08/08 12:11:48;;;;;;;1.20;0.90;;;25.20;75.10;;;;;;5037737;28;20045;-79
2021/08/08 12:14:14;;;;;;;1.85;0.95;;;25.80;74.10;;;;;;5036727;28;20065;-77
2021/08/08 12:16:41;;;;;;;1.17;1.08;;;26.80;72.00;;;;;;5054718;28;20049;-77
2021/08/08 12:19:08;;;;;;;0.93;0.93;;;27.50;69.10;;;;;;5042656;28;20050;-78
2021/08/08 12:21:36;;;;;;;1.63;0.70;;;26.80;65.90;;;;;;5054054;28;20049;-77
2021/08/08 12:24:08;;;;;;;0.65;0.65;;;25.90;67.80;;;;;;5054885;28;20049;-78
2021/08/08 12:26:38;;;;;;;1.05;0.80;;;26.60;68.30;;;;;;5055660;28;20053;-77
2021/08/08 12:29:07;;;;;;;1.67;1.25;;;26.90;65.20;;;;;;5057239;28;20386;-78
2021/08/08 12:31:38;;;;;;;0.98;0.98;;;26.20;64.20;;;;;;5060952;28;20056;-78
2021/08/08 12:34:13;;;;;;;0.68;0.57;;;25.90;67.80;;;;;;5062237;28;20075;-77
2021/08/08 12:36:41;;;;;;;1.38;1.10;;;25.60;65.90;;;;;;5059327;28;20053;-77
2021/08/08 12:39:08;;;;;;;2.20;1.23;;;25.20;68.80;;;;;;5053768;28;20489;-77
2021/08/08 12:41:39;;;;;;;0.95;0.68;;;25.40;69.50;;;;;;5054491;28;20460;-78
2021/08/08 12:44:07;;;;;;;2.05;0.93;;;25.40;70.30;;;;;;5055053;28;20474;-78
2021/08/08 12:46:36;;;;;;;0.90;0.90;;;25.60;69.50;;;;;;5057528;28;20041;-77
2021/08/08 12:49:05;;;;;;;1.27;0.95;;;25.70;66.70;;;;;;5049209;28;20045;-77
2021/08/08 12:51:32;;;;;;;2.65;0.80;;;26.30;65.50;;;;;;5037779;28;20045;-78